createdAt,value
2018-09-11T12:45:44.308Z,247.50
2018-09-11T12:46:44.614Z,253.12
2018-09-11T12:47:44.697Z,247.50
2018-09-11T12:48:44.320Z,247.50
2018-09-11T12:49:44.230Z,247.50
2018-09-11T12:50:44.219Z,247.50
2018-09-11T12:51:44.208Z,247.50
2018-09-11T12:52:44.197Z,247.50
2018-09-11T12:53:44.184Z,247.50
2018-09-11T12:54:44.175Z,247.50
2018-09-11T12:55:44.167Z,247.50
2018-09-11T12:56:44.152Z,241.87
2018-09-11T12:57:44.143Z,241.87
2018-09-11T12:58:44.133Z,241.87
2018-09-11T12:59:44.119Z,241.87
2018-09-11T13:00:44.111Z,247.50
2018-09-11T13:01:44.098Z,241.87
2018-09-11T13:02:44.094Z,241.87
2018-09-11T13:03:44.078Z,241.87
2018-09-11T13:04:44.068Z,241.87
2018-09-11T13:05:44.058Z,247.50
2018-09-11T13:06:44.046Z,241.87
2018-09-11T13:07:44.034Z,247.50
2018-09-11T13:08:44.024Z,247.50
2018-09-11T13:09:44.016Z,241.87
2018-09-11T13:10:44.003Z,241.87
2018-09-11T13:11:43.995Z,247.50
2018-09-11T13:12:43.982Z,247.50
2018-09-11T13:13:43.969Z,247.50
2018-09-11T13:14:43.960Z,247.50
2018-09-11T13:15:43.951Z,247.50
2018-09-11T13:16:43.937Z,247.50
2018-09-11T13:17:43.930Z,247.50
2018-09-11T13:18:43.916Z,247.50
2018-09-11T13:19:43.906Z,247.50
2018-09-11T13:20:43.893Z,253.12
2018-09-11T13:21:43.882Z,253.12
2018-09-11T13:22:43.874Z,253.12
2018-09-11T13:23:43.866Z,253.12
2018-09-11T13:24:43.850Z,253.12
2018-09-11T13:25:43.840Z,253.12
2018-09-11T13:26:43.830Z,253.12
2018-09-11T13:27:43.821Z,253.12
2018-09-11T13:28:43.813Z,253.12
2018-09-11T13:29:43.800Z,253.12
2018-09-11T13:30:43.788Z,253.12
2018-09-11T13:31:43.781Z,253.12
2018-09-11T13:32:43.768Z,253.12
2018-09-11T13:33:43.758Z,253.12
2018-09-11T13:34:43.743Z,247.50
2018-09-11T13:35:43.735Z,247.50
2018-09-11T13:36:43.731Z,247.50
2018-09-11T13:37:43.718Z,247.50
2018-09-11T13:38:43.700Z,247.50
2018-09-11T13:39:43.691Z,247.50
2018-09-11T13:40:43.685Z,241.87
2018-09-11T13:41:43.670Z,241.87
2018-09-11T13:42:43.661Z,241.87
2018-09-11T13:43:43.648Z,236.25
2018-09-11T13:44:43.638Z,241.87
2018-09-11T13:45:43.628Z,241.87
2018-09-11T13:46:43.617Z,236.25
2018-09-11T13:47:43.658Z,236.25
2018-09-11T13:48:43.595Z,225.00
2018-09-11T13:49:43.589Z,230.62
2018-09-11T13:50:43.573Z,230.62
2018-09-11T13:51:43.562Z,230.62
2018-09-11T13:52:43.552Z,230.62
2018-09-11T13:53:43.547Z,225.00
2018-09-11T13:54:43.532Z,219.37
2018-09-11T13:55:43.522Z,213.75
2018-09-11T13:56:43.510Z,213.75
2018-09-11T13:57:43.604Z,219.37
2018-09-11T13:58:43.488Z,225.00
2018-09-11T13:59:43.479Z,225.00
2018-09-11T14:00:43.470Z,225.00
2018-09-11T14:01:43.458Z,225.00
2018-09-11T14:02:43.538Z,225.00
2018-09-11T14:03:43.440Z,225.00
2018-09-11T14:04:43.428Z,230.62
2018-09-11T14:05:43.416Z,225.00
2018-09-11T14:06:43.406Z,230.62
2018-09-11T14:07:43.396Z,225.00
2018-09-11T14:08:43.386Z,225.00
2018-09-11T14:09:43.375Z,225.00
2018-09-11T14:10:43.365Z,225.00
2018-09-11T14:11:43.350Z,225.00
2018-09-11T14:12:43.341Z,225.00
2018-09-11T14:13:43.336Z,219.37
2018-09-11T14:14:43.318Z,225.00
2018-09-11T14:15:43.339Z,219.37
2018-09-11T14:16:43.302Z,219.37
2018-09-11T14:17:43.289Z,219.37
2018-09-11T14:18:43.276Z,219.37
2018-09-11T14:19:43.274Z,219.37
2018-09-11T14:20:43.256Z,219.37
2018-09-11T14:21:43.246Z,219.37
2018-09-11T14:22:43.234Z,213.75
2018-09-11T14:23:43.226Z,213.75
2018-09-11T14:24:43.215Z,213.75
2018-09-11T14:25:43.201Z,213.75
2018-09-11T14:26:43.250Z,213.75
2018-09-11T14:27:43.182Z,213.75
2018-09-11T14:28:43.172Z,208.12
2018-09-11T14:29:43.160Z,208.12
2018-09-11T14:30:43.153Z,208.12
2018-09-11T14:31:43.139Z,202.50
2018-09-11T14:32:43.131Z,202.50
2018-09-11T14:33:43.121Z,202.50
2018-09-11T14:34:43.108Z,202.50
2018-09-11T14:35:43.095Z,202.50
2018-09-11T14:36:43.091Z,196.87
2018-09-11T14:37:43.077Z,191.25
2018-09-11T14:38:43.067Z,191.25
2018-09-11T14:39:43.053Z,196.87
2018-09-11T14:40:43.042Z,191.25
2018-09-11T14:41:43.033Z,196.87
2018-09-11T14:42:43.025Z,202.50
2018-09-11T14:43:43.012Z,202.50
2018-09-11T14:44:43.017Z,196.87
2018-09-11T14:45:42.989Z,202.50
2018-09-11T14:46:42.981Z,196.87
2018-09-11T14:47:42.972Z,196.87
2018-09-11T14:48:42.960Z,191.25
2018-09-11T14:49:42.949Z,185.62
2018-09-11T14:50:42.937Z,185.62
2018-09-11T14:51:42.928Z,185.62
2018-09-11T14:52:43.024Z,185.62
2018-09-11T14:53:42.910Z,185.62
2018-09-11T14:54:42.894Z,185.62
2018-09-11T14:55:42.913Z,185.62
2018-09-11T14:56:42.877Z,185.62
2018-09-11T14:57:42.866Z,185.62
2018-09-11T14:58:42.855Z,185.62
2018-09-11T14:59:42.844Z,185.62
2018-09-11T15:00:42.834Z,185.62
2018-09-11T15:01:42.825Z,185.62
2018-09-11T15:02:42.812Z,185.62
2018-09-11T15:03:42.807Z,185.62
2018-09-11T15:04:42.789Z,185.62
2018-09-11T15:05:42.780Z,185.62
2018-09-11T15:06:42.770Z,185.62
2018-09-11T15:07:42.765Z,180.00
2018-09-11T15:08:42.751Z,180.00
2018-09-11T15:09:42.741Z,180.00
2018-09-11T15:10:42.726Z,180.00
2018-09-11T15:11:42.717Z,180.00
2018-09-11T15:12:42.705Z,180.00
2018-09-11T15:13:42.695Z,180.00
2018-09-11T15:14:42.692Z,180.00
2018-09-11T15:15:42.671Z,174.37
2018-09-11T15:16:42.664Z,174.37
2018-09-11T15:17:42.652Z,174.37
2018-09-11T15:18:42.642Z,174.37
2018-09-11T15:19:42.632Z,174.37
2018-09-11T15:20:42.622Z,174.37
2018-09-11T15:21:42.614Z,174.37
2018-09-11T15:22:42.681Z,174.37
2018-09-11T15:23:42.589Z,174.37
2018-09-11T15:24:42.580Z,174.37
2018-09-11T15:25:42.568Z,168.75
2018-09-11T15:26:42.557Z,168.75
2018-09-11T15:27:42.546Z,163.12
2018-09-11T15:28:42.536Z,163.12
2018-09-11T15:29:42.523Z,168.75
2018-09-11T15:30:42.516Z,168.75
2018-09-11T15:31:42.505Z,168.75
2018-09-11T15:32:42.495Z,168.75
2018-09-11T15:33:42.484Z,163.12
2018-09-11T15:34:42.470Z,163.12
2018-09-11T15:35:42.462Z,157.50
2018-09-11T15:36:42.451Z,157.50
2018-09-11T15:37:42.441Z,157.50
2018-09-11T15:38:42.431Z,157.50
2018-09-11T15:39:42.427Z,151.87
2018-09-11T15:40:42.415Z,151.87
2018-09-11T15:41:42.398Z,146.25
2018-09-11T15:42:42.388Z,140.62
2018-09-11T15:43:42.375Z,140.62
2018-09-11T15:44:42.369Z,135.00
2018-09-11T15:45:42.359Z,135.00
2018-09-11T15:46:42.347Z,135.00
2018-09-11T15:47:42.336Z,129.37
2018-09-11T15:48:42.324Z,129.37
2018-09-11T15:49:42.317Z,129.37
2018-09-11T15:50:42.301Z,129.37
2018-09-11T15:51:42.292Z,129.37
2018-09-11T15:52:42.283Z,129.37
2018-09-11T15:53:42.270Z,129.37
2018-09-11T15:54:42.258Z,129.37
2018-09-11T15:55:42.302Z,129.37
2018-09-11T15:56:42.238Z,123.75
2018-09-11T15:57:42.228Z,123.75
2018-09-11T15:58:42.217Z,123.75
2018-09-11T15:59:42.212Z,123.75
2018-09-11T16:00:42.197Z,123.75
2018-09-11T16:01:42.185Z,123.75
2018-09-11T16:02:42.173Z,118.12
2018-09-11T16:03:42.166Z,118.12
2018-09-11T16:04:42.155Z,118.12
2018-09-11T16:05:42.146Z,118.12
2018-09-11T16:06:42.130Z,118.12
2018-09-11T16:07:42.122Z,118.12
2018-09-11T16:08:42.113Z,112.50
2018-09-11T16:09:42.097Z,112.50
2018-09-11T16:10:42.088Z,112.50
2018-09-11T16:11:42.076Z,112.50
2018-09-11T16:12:42.067Z,112.50
2018-09-11T16:13:42.055Z,106.87
2018-09-11T16:14:42.046Z,106.87
2018-09-11T16:15:42.036Z,106.87
2018-09-11T16:16:42.027Z,106.87
2018-09-11T16:17:42.012Z,106.87
2018-09-11T16:18:42.006Z,106.87
2018-09-11T16:19:41.993Z,101.25
2018-09-11T16:20:41.984Z,101.25
2018-09-11T16:21:41.972Z,101.25
2018-09-11T16:22:41.959Z,101.25
2018-09-11T16:23:41.949Z,101.25
2018-09-11T16:24:41.946Z,101.25
2018-09-11T16:25:41.926Z,101.25
2018-09-11T16:26:41.919Z,101.25
2018-09-11T16:27:41.905Z,101.25
2018-09-11T16:28:41.894Z,101.25
2018-09-11T16:29:41.927Z,95.62
2018-09-11T16:30:41.875Z,95.62
2018-09-11T16:31:41.870Z,95.62
2018-09-11T16:32:41.854Z,95.62
2018-09-11T16:33:41.843Z,95.62
2018-09-11T16:34:41.836Z,95.62
2018-09-11T16:35:41.820Z,95.62
2018-09-11T16:36:41.810Z,95.62
2018-09-11T16:37:41.800Z,95.62
2018-09-11T16:38:41.795Z,95.62
2018-09-11T16:39:41.779Z,90.00
2018-09-11T16:40:41.769Z,90.00
2018-09-11T16:41:41.759Z,90.00
2018-09-11T16:42:41.748Z,90.00
2018-09-11T16:43:41.737Z,90.00
2018-09-11T16:44:41.726Z,90.00
2018-09-11T16:45:41.715Z,90.00
2018-09-11T16:46:41.766Z,90.00
2018-09-11T16:47:41.691Z,90.00
2018-09-11T16:48:41.682Z,84.37
2018-09-11T16:49:41.672Z,84.37
2018-09-11T16:50:41.661Z,84.37
2018-09-11T16:51:41.650Z,84.37
2018-09-11T16:52:41.640Z,84.37
2018-09-11T16:53:41.629Z,84.37
2018-09-11T16:54:41.629Z,84.37
2018-09-11T16:55:41.609Z,84.37
2018-09-11T16:56:41.597Z,78.75
2018-09-11T16:57:41.589Z,78.75
2018-09-11T16:58:41.576Z,78.75
2018-09-11T16:59:41.566Z,78.75
2018-09-11T17:00:41.556Z,78.75
2018-09-11T17:01:41.546Z,78.75
2018-09-11T17:02:41.535Z,73.12
2018-09-11T17:03:41.524Z,73.12
2018-09-11T17:04:41.512Z,73.12
2018-09-11T17:05:41.500Z,73.12
2018-09-11T17:06:41.492Z,73.12
2018-09-11T17:07:41.482Z,67.50
2018-09-11T17:08:41.539Z,67.50
2018-09-11T17:09:41.457Z,67.50
2018-09-11T17:10:41.448Z,67.50
2018-09-11T17:11:41.437Z,61.87
2018-09-11T17:12:41.426Z,61.87
2018-09-11T17:13:41.415Z,61.87
2018-09-11T17:14:41.456Z,61.87
2018-09-11T17:15:41.397Z,56.25
2018-09-11T17:16:41.384Z,56.25
2018-09-11T17:17:41.373Z,56.25
2018-09-11T17:18:41.364Z,56.25
2018-09-11T17:19:41.350Z,50.62
2018-09-11T17:20:41.340Z,50.62
2018-09-11T17:21:41.328Z,50.62
2018-09-11T17:22:41.322Z,50.62
2018-09-11T17:23:41.308Z,45.00
2018-09-11T17:24:41.296Z,45.00
2018-09-11T17:25:41.286Z,45.00
2018-09-11T17:26:41.274Z,45.00
2018-09-11T17:27:41.268Z,39.37
2018-09-11T17:28:41.259Z,39.37
2018-09-11T17:29:41.244Z,39.37
2018-09-11T17:30:41.233Z,33.75
2018-09-11T17:31:41.221Z,33.75
2018-09-11T17:32:41.210Z,33.75
2018-09-11T17:33:41.200Z,28.12
2018-09-11T17:34:41.189Z,28.12
2018-09-11T17:35:41.192Z,28.12
2018-09-11T17:36:41.171Z,22.50
2018-09-11T17:37:41.160Z,22.50
2018-09-11T17:38:41.147Z,22.50
2018-09-11T17:39:41.135Z,22.50
2018-09-11T17:40:41.126Z,16.87
2018-09-11T17:41:41.112Z,16.87
2018-09-11T17:42:41.123Z,16.87
2018-09-11T17:43:41.092Z,16.87
2018-09-11T17:44:41.081Z,11.25
2018-09-11T17:45:41.069Z,11.25
2018-09-11T17:46:41.062Z,11.25
2018-09-11T17:47:41.055Z,11.25
2018-09-11T17:48:41.069Z,11.25
2018-09-11T17:49:41.025Z,5.62
2018-09-11T17:50:41.015Z,5.62
2018-09-11T17:51:41.006Z,5.62
2018-09-11T17:52:40.994Z,5.62
2018-09-11T17:53:40.985Z,5.62
2018-09-11T17:54:40.973Z,5.62
2018-09-11T17:55:40.962Z,5.62
2018-09-11T17:56:40.952Z,5.62
2018-09-11T17:57:40.939Z,0.00
2018-09-11T17:58:40.932Z,0.00
2018-09-11T17:59:40.924Z,0.00
2018-09-11T18:00:40.908Z,0.00
2018-09-11T18:01:40.898Z,0.00
2018-09-11T18:02:40.888Z,0.00
2018-09-11T18:03:40.876Z,0.00
2018-09-11T18:04:40.865Z,0.00
2018-09-11T18:05:40.857Z,0.00
2018-09-11T18:06:40.842Z,0.00
2018-09-11T18:07:40.835Z,0.00
2018-09-11T18:08:40.842Z,0.00
2018-09-11T18:09:40.811Z,0.00
2018-09-11T18:10:40.799Z,0.00
2018-09-11T18:11:40.792Z,0.00
2018-09-11T18:12:40.777Z,0.00
2018-09-11T18:13:40.767Z,0.00
2018-09-11T18:14:40.757Z,0.00
2018-09-11T18:15:40.743Z,0.00
2018-09-11T18:16:40.738Z,0.00
2018-09-11T18:17:40.723Z,0.00
2018-09-11T18:18:40.714Z,0.00
2018-09-11T18:19:40.702Z,0.00
2018-09-11T18:20:40.691Z,0.00
2018-09-11T18:21:40.683Z,0.00
2018-09-11T18:22:40.671Z,0.00
2018-09-11T18:23:40.657Z,0.00
2018-09-11T18:24:40.650Z,0.00
2018-09-11T18:25:40.636Z,0.00
2018-09-11T18:26:40.628Z,0.00
2018-09-11T18:27:40.616Z,0.00
2018-09-11T18:28:40.609Z,0.00
2018-09-11T18:29:40.593Z,0.00
2018-09-11T18:30:40.592Z,0.00
2018-09-11T18:31:40.573Z,0.00
2018-09-11T18:32:40.560Z,0.00
2018-09-11T18:33:40.556Z,0.00
2018-09-11T18:34:40.540Z,0.00
2018-09-11T18:35:40.528Z,0.00
2018-09-11T18:36:40.574Z,0.00
2018-09-11T18:37:40.511Z,0.00
2018-09-11T18:38:40.500Z,0.00
2018-09-11T18:39:40.486Z,0.00
2018-09-11T18:40:40.474Z,0.00
2018-09-11T18:41:40.463Z,0.00
2018-09-11T18:42:40.451Z,0.00
2018-09-11T18:43:40.442Z,0.00
2018-09-11T18:44:40.500Z,0.00
2018-09-11T18:45:40.422Z,0.00
2018-09-11T18:46:40.556Z,0.00
2018-09-11T18:47:40.395Z,0.00
2018-09-11T18:48:40.385Z,0.00
2018-09-11T18:49:40.378Z,0.00
2018-09-11T18:50:40.362Z,0.00
2018-09-11T18:51:40.365Z,0.00
2018-09-11T18:52:40.348Z,0.00
2018-09-11T18:53:40.331Z,0.00
2018-09-11T18:54:40.322Z,0.00
2018-09-11T18:55:40.309Z,0.00
2018-09-11T18:56:40.299Z,0.00
2018-09-11T18:57:40.301Z,0.00
2018-09-11T18:58:40.279Z,0.00
2018-09-11T18:59:40.265Z,0.00
2018-09-11T19:00:40.256Z,0.00
2018-09-11T19:01:40.243Z,0.00
2018-09-11T19:02:40.235Z,0.00
2018-09-11T19:03:40.225Z,0.00
2018-09-11T19:04:40.212Z,0.00
2018-09-11T19:05:40.204Z,0.00
2018-09-11T19:06:40.190Z,0.00
2018-09-11T19:07:40.178Z,0.00
2018-09-11T19:08:40.169Z,0.00
2018-09-11T19:09:40.157Z,0.00
2018-09-11T19:10:40.143Z,0.00
2018-09-11T19:11:40.137Z,0.00
2018-09-11T19:12:40.125Z,0.00
2018-09-11T19:13:40.112Z,0.00
2018-09-11T19:14:40.106Z,0.00
2018-09-11T19:15:40.091Z,0.00
2018-09-11T19:16:40.097Z,0.00
2018-09-11T19:17:40.069Z,0.00
2018-09-11T19:18:40.062Z,0.00
2018-09-11T19:19:40.046Z,0.00
2018-09-11T19:20:40.036Z,0.00
2018-09-11T19:21:40.025Z,0.00
2018-09-11T19:22:40.017Z,0.00
2018-09-11T19:23:40.002Z,0.00
2018-09-11T19:24:39.995Z,0.00
2018-09-11T19:25:39.985Z,0.00
2018-09-11T19:26:39.973Z,0.00
2018-09-11T19:27:39.961Z,0.00
2018-09-11T19:28:39.960Z,0.00
2018-09-11T19:29:39.939Z,0.00
2018-09-11T19:30:39.924Z,0.00
2018-09-11T19:31:39.917Z,0.00
2018-09-11T19:32:39.904Z,0.00
2018-09-11T19:33:39.895Z,0.00
2018-09-11T19:34:39.883Z,0.00
2018-09-11T19:35:39.872Z,0.00
2018-09-11T19:36:39.861Z,0.00
2018-09-11T19:37:39.849Z,0.00
2018-09-11T19:38:39.842Z,0.00
2018-09-11T19:39:39.829Z,0.00
2018-09-11T19:40:39.816Z,0.00
2018-09-11T19:41:39.805Z,0.00
2018-09-11T19:42:39.797Z,0.00
2018-09-11T19:43:39.785Z,0.00
2018-09-11T19:44:39.771Z,0.00
2018-09-11T19:45:39.764Z,0.00
2018-09-11T19:46:39.752Z,0.00
2018-09-11T19:47:39.742Z,0.00
2018-09-11T19:48:39.727Z,0.00
2018-09-11T19:49:39.720Z,0.00
2018-09-11T19:50:39.772Z,0.00
2018-09-11T19:51:39.697Z,0.00
2018-09-11T19:52:39.692Z,0.00
2018-09-11T19:53:39.675Z,0.00
2018-09-11T19:54:39.665Z,0.00
2018-09-11T19:55:39.653Z,0.00
2018-09-11T19:56:39.641Z,0.00
2018-09-11T19:57:39.635Z,0.00
2018-09-11T19:58:39.660Z,0.00
2018-09-11T19:59:39.609Z,0.00
2018-09-11T20:00:39.597Z,0.00
2018-09-11T20:01:39.590Z,0.00
2018-09-11T20:02:39.573Z,0.00
2018-09-11T20:03:39.566Z,0.00
2018-09-11T20:04:39.554Z,0.00
2018-09-11T20:05:39.549Z,0.00
2018-09-11T20:06:39.529Z,0.00
2018-09-11T20:07:39.518Z,0.00
2018-09-11T20:08:39.510Z,0.00
2018-09-11T20:09:39.498Z,0.00
2018-09-11T20:10:39.487Z,0.00
2018-09-11T20:11:39.476Z,0.00
2018-09-11T20:12:39.465Z,0.00
2018-09-11T20:13:39.457Z,0.00
2018-09-11T20:14:39.446Z,0.00
2018-09-11T20:15:39.433Z,0.00
2018-09-11T20:16:39.421Z,0.00
2018-09-11T20:17:39.409Z,0.00
2018-09-11T20:18:39.461Z,0.00
2018-09-11T20:19:39.389Z,0.00
2018-09-11T20:20:39.378Z,0.00
2018-09-11T20:21:39.367Z,0.00
2018-09-11T20:22:39.357Z,0.00
2018-09-11T20:23:39.348Z,0.00
2018-09-11T20:24:39.333Z,0.00
2018-09-11T20:25:39.324Z,0.00
2018-09-11T20:26:39.313Z,0.00
2018-09-11T20:27:39.300Z,0.00
2018-09-11T20:28:39.291Z,0.00
2018-09-11T20:29:39.279Z,0.00
2018-09-11T20:30:39.268Z,0.00
2018-09-11T20:31:39.258Z,0.00
2018-09-11T20:32:39.244Z,0.00
2018-09-11T20:33:39.236Z,0.00
2018-09-11T20:34:39.225Z,0.00
2018-09-11T20:35:39.214Z,0.00
2018-09-11T20:36:39.203Z,0.00
2018-09-11T20:37:39.190Z,0.00
2018-09-11T20:38:39.182Z,0.00
2018-09-11T20:39:39.168Z,0.00
2018-09-11T20:40:39.159Z,0.00
2018-09-11T20:41:39.147Z,0.00
2018-09-11T20:42:39.137Z,0.00
2018-09-11T20:43:39.125Z,0.00
2018-09-11T20:44:39.114Z,0.00
2018-09-11T20:45:39.107Z,0.00
2018-09-11T20:46:39.096Z,0.00
2018-09-11T20:47:39.083Z,0.00
2018-09-11T20:48:39.072Z,0.00
2018-09-11T20:49:39.059Z,0.00
2018-09-11T20:50:39.048Z,0.00
2018-09-11T20:51:39.039Z,0.00
2018-09-11T20:52:39.027Z,0.00
2018-09-11T20:53:39.018Z,0.00
2018-09-11T20:54:39.005Z,0.00
2018-09-11T20:55:38.995Z,0.00
2018-09-11T20:56:38.983Z,0.00
2018-09-11T20:57:38.974Z,0.00
2018-09-11T20:58:38.961Z,0.00
2018-09-11T20:59:38.949Z,0.00
2018-09-11T21:00:38.942Z,0.00
2018-09-11T21:01:38.929Z,0.00
2018-09-11T21:02:38.917Z,0.00
2018-09-11T21:03:38.906Z,0.00
2018-09-11T21:04:38.897Z,0.00
2018-09-11T21:05:38.883Z,0.00
2018-09-11T21:06:38.873Z,0.00
2018-09-11T21:07:38.861Z,0.00
2018-09-11T21:08:38.850Z,0.00
2018-09-11T21:09:38.840Z,0.00
2018-09-11T21:10:38.832Z,0.00
2018-09-11T21:11:38.819Z,0.00
2018-09-11T21:12:38.806Z,0.00
2018-09-11T21:13:38.796Z,0.00
2018-09-11T21:14:38.783Z,0.00
2018-09-11T21:15:38.779Z,0.00
2018-09-11T21:16:38.762Z,0.00
2018-09-11T21:17:38.766Z,0.00
2018-09-11T21:18:38.741Z,0.00
2018-09-11T21:19:38.732Z,0.00
2018-09-11T21:20:38.718Z,0.00
2018-09-11T21:21:38.711Z,0.00
2018-09-11T21:22:38.704Z,0.00
2018-09-11T21:23:38.684Z,0.00
2018-09-11T21:24:38.675Z,0.00
2018-09-11T21:25:38.662Z,0.00
2018-09-11T21:26:38.655Z,0.00
2018-09-11T21:27:38.644Z,0.00
2018-09-11T21:28:38.633Z,0.00
2018-09-11T21:29:38.621Z,0.00
2018-09-11T21:30:38.607Z,0.00
2018-09-11T21:31:38.599Z,0.00
2018-09-11T21:32:38.585Z,0.00
2018-09-11T21:33:38.576Z,0.00
2018-09-11T21:34:38.568Z,0.00
2018-09-11T21:35:38.555Z,0.00
2018-09-11T21:36:38.547Z,0.00
2018-09-11T21:37:38.535Z,0.00
2018-09-11T21:38:38.521Z,0.00
2018-09-11T21:39:38.511Z,0.00
2018-09-11T21:40:38.498Z,0.00
2018-09-11T21:41:38.487Z,0.00
2018-09-11T21:42:38.480Z,0.00
2018-09-11T21:43:38.466Z,0.00
2018-09-11T21:44:38.454Z,0.00
2018-09-11T21:45:38.444Z,0.00
2018-09-11T21:46:38.434Z,0.00
2018-09-11T21:47:38.429Z,0.00
2018-09-11T21:48:38.410Z,0.00
2018-09-11T21:49:38.403Z,0.00
2018-09-11T21:50:38.388Z,0.00
2018-09-11T21:51:38.379Z,0.00
2018-09-11T21:52:38.365Z,0.00
2018-09-11T21:53:38.356Z,0.00
2018-09-11T21:54:38.347Z,0.00
2018-09-11T21:55:38.333Z,0.00
2018-09-11T21:56:38.322Z,0.00
2018-09-11T21:57:38.312Z,0.00
2018-09-11T21:58:38.302Z,0.00
2018-09-11T21:59:38.291Z,0.00
2018-09-11T22:00:38.282Z,0.00
2018-09-11T22:01:38.272Z,0.00
2018-09-11T22:02:38.257Z,0.00
2018-09-11T22:03:38.246Z,0.00
2018-09-11T22:04:38.235Z,0.00
2018-09-11T22:05:38.295Z,0.00
2018-09-11T22:06:38.214Z,0.00
2018-09-11T22:07:38.202Z,0.00
2018-09-11T22:08:38.191Z,0.00
2018-09-11T22:09:38.179Z,0.00
2018-09-11T22:10:38.173Z,0.00
2018-09-11T22:11:38.158Z,0.00
2018-09-11T22:12:38.148Z,0.00
2018-09-11T22:13:38.136Z,0.00
2018-09-11T22:14:38.123Z,0.00
2018-09-11T22:15:38.113Z,0.00
2018-09-11T22:16:38.103Z,0.00
2018-09-11T22:17:38.092Z,0.00
2018-09-11T22:18:38.081Z,0.00
2018-09-11T22:19:38.070Z,0.00
2018-09-11T22:20:38.060Z,0.00
2018-09-11T22:21:38.050Z,0.00
2018-09-11T22:22:38.034Z,0.00
2018-09-11T22:23:38.024Z,0.00
2018-09-11T22:24:38.023Z,0.00
2018-09-11T22:25:38.007Z,0.00
2018-09-11T22:26:37.992Z,0.00
2018-09-11T22:27:37.981Z,0.00
2018-09-11T22:28:37.973Z,0.00
2018-09-11T22:29:37.959Z,0.00
2018-09-11T22:30:37.948Z,0.00
2018-09-11T22:31:37.941Z,0.00
2018-09-11T22:32:37.929Z,0.00
2018-09-11T22:33:37.913Z,0.00
2018-09-11T22:34:37.905Z,0.00
2018-09-11T22:35:37.897Z,0.00
2018-09-11T22:36:37.884Z,0.00
2018-09-11T22:37:37.869Z,0.00
2018-09-11T22:38:37.861Z,0.00
2018-09-11T22:39:37.848Z,0.00
2018-09-11T22:40:37.836Z,0.00
2018-09-11T22:41:37.854Z,0.00
2018-09-11T22:42:37.818Z,0.00
2018-09-11T22:43:37.805Z,0.00
2018-09-11T22:44:37.797Z,0.00
2018-09-11T22:45:37.786Z,0.00
2018-09-11T22:46:37.772Z,0.00
2018-09-11T22:47:37.766Z,0.00
2018-09-11T22:48:37.750Z,0.00
2018-09-11T22:49:37.739Z,0.00
2018-09-11T22:50:37.728Z,0.00
2018-09-11T22:51:37.717Z,0.00
2018-09-11T22:52:37.708Z,0.00
2018-09-11T22:53:37.700Z,0.00
2018-09-11T22:54:37.689Z,0.00
2018-09-11T22:55:37.673Z,0.00
2018-09-11T22:56:37.663Z,0.00
2018-09-11T22:57:37.652Z,0.00
2018-09-11T22:58:37.646Z,0.00
2018-09-11T22:59:37.630Z,0.00
2018-09-11T23:00:37.618Z,0.00
2018-09-11T23:01:37.605Z,0.00
2018-09-11T23:02:37.599Z,0.00
2018-09-11T23:03:37.590Z,0.00
2018-09-11T23:04:37.573Z,0.00
2018-09-11T23:05:37.571Z,0.00
2018-09-11T23:06:37.553Z,0.00
2018-09-11T23:07:37.540Z,0.00
2018-09-11T23:08:37.531Z,0.00
2018-09-11T23:09:37.517Z,0.00
2018-09-11T23:10:37.507Z,0.00
2018-09-11T23:11:37.498Z,0.00
2018-09-11T23:12:37.485Z,0.00
2018-09-11T23:13:37.477Z,0.00
2018-09-11T23:14:37.468Z,0.00
2018-09-11T23:15:37.455Z,0.00
2018-09-11T23:16:37.444Z,0.00
2018-09-11T23:17:37.440Z,0.00
2018-09-11T23:18:37.419Z,0.00
2018-09-11T23:19:37.411Z,0.00
2018-09-11T23:20:37.401Z,0.00
2018-09-11T23:21:37.386Z,0.00
2018-09-11T23:22:37.376Z,0.00
2018-09-11T23:23:37.364Z,0.00
2018-09-11T23:24:37.352Z,0.00
2018-09-11T23:25:37.379Z,0.00
2018-09-11T23:26:37.425Z,0.00
2018-09-11T23:27:37.355Z,0.00
2018-09-11T23:28:37.311Z,0.00
2018-09-11T23:29:37.302Z,0.00
2018-09-11T23:30:37.288Z,0.00
2018-09-11T23:31:37.280Z,0.00
2018-09-11T23:32:37.271Z,0.00
2018-09-11T23:33:37.265Z,0.00
2018-09-11T23:34:37.243Z,0.00
2018-09-11T23:35:37.233Z,0.00
2018-09-11T23:36:37.225Z,0.00
2018-09-11T23:37:37.213Z,0.00
2018-09-11T23:38:37.199Z,0.00
2018-09-11T23:39:37.188Z,0.00
2018-09-11T23:40:37.181Z,0.00
2018-09-11T23:41:37.168Z,0.00
2018-09-11T23:42:37.155Z,0.00
2018-09-11T23:43:37.143Z,0.00
2018-09-11T23:44:37.143Z,0.00
2018-09-11T23:45:37.125Z,0.00
2018-09-11T23:46:37.120Z,0.00
2018-09-11T23:47:37.099Z,0.00
2018-09-11T23:48:37.089Z,0.00
2018-09-11T23:49:37.078Z,0.00
2018-09-11T23:50:37.066Z,0.00
2018-09-11T23:51:37.064Z,0.00
2018-09-11T23:52:37.045Z,0.00
2018-09-11T23:53:37.034Z,0.00
2018-09-11T23:54:37.073Z,0.00
2018-09-11T23:55:37.033Z,0.00
2018-09-11T23:56:37.001Z,0.00
2018-09-11T23:57:36.990Z,0.00
2018-09-11T23:58:36.979Z,0.00
2018-09-11T23:59:36.967Z,0.00
